Time;durP1;ratioP1;P1;durP2;ratioP2;P2;SDS_P1;SDS_P2;PMS_P1;PMS_P2;Temp;Humidity;BMP_temperature;BMP_pressure;BME280_temperature;BME280_humidity;BME280_pressure;Samples;Min_cycle;Max_cycle;Signal;HPM_P1;HPM_P2
2023/02/03 00:01:41;;;;;;;14.35;2.63;;;;;;;7.84;100.00;102538.47;5050754;28;20229;-74
2023/02/03 00:04:06;;;;;;;10.30;2.67;;;;;;;7.84;100.00;102544.56;5058117;28;20029;-74
2023/02/03 00:06:32;;;;;;;16.30;3.15;;;;;;;7.84;100.00;102552.41;5056001;28;20210;-74
2023/02/03 00:08:59;;;;;;;14.80;2.63;;;;;;;7.85;100.00;102561.94;5058271;28;20037;-74
2023/02/03 00:11:25;;;;;;;11.48;2.45;;;;;;;7.85;100.00;102564.53;5046673;28;20030;-74
2023/02/03 00:13:51;;;;;;;15.25;2.97;;;;;;;7.85;100.00;102568.91;5038188;28;20265;-74
2023/02/03 00:16:16;;;;;;;9.63;2.40;;;;;;;7.85;100.00;102568.91;5046866;28;20048;-74
2023/02/03 00:18:41;;;;;;;13.98;2.45;;;;;;;7.84;100.00;102561.94;5058228;28;20041;-74
2023/02/03 00:21:07;;;;;;;14.35;2.63;;;;;;;7.83;100.00;102560.22;5056688;28;20033;-74
2023/02/03 00:23:33;;;;;;;11.32;3.05;;;;;;;7.81;100.00;102549.78;5045351;28;20041;-74
2023/02/03 00:26:09;;;;;;;11.35;2.53;;;;;;;7.80;100.00;102548.03;5039718;28;20105;-74
2023/02/03 00:28:35;;;;;;;19.67;3.15;;;;;;;7.76;100.00;102553.28;5037963;28;20093;-74
2023/02/03 00:31:00;;;;;;;21.02;2.97;;;;;;;7.76;100.00;102550.66;5043362;28;20029;-74
2023/02/03 00:33:26;;;;;;;19.83;3.85;;;;;;;7.75;100.00;102552.41;5057795;28;20029;-74
2023/02/03 00:35:51;;;;;;;15.35;2.38;;;;;;;7.74;100.00;102560.22;5054964;28;20075;-74
2023/02/03 00:38:16;;;;;;;16.92;2.22;;;;;;;7.73;100.00;102564.59;5056518;28;20037;-74
2023/02/03 00:40:42;;;;;;;15.43;2.72;;;;;;;7.73;100.00;102567.19;5038207;28;20037;-74
2023/02/03 00:43:07;;;;;;;14.02;2.67;;;;;;;7.74;100.00;102583.72;5056152;28;20118;-74
2023/02/03 00:45:32;;;;;;;11.65;2.28;;;;;;;7.74;100.00;102570.66;5057488;28;20044;-74
2023/02/03 00:47:58;;;;;;;18.13;2.70;;;;;;;7.76;100.00;102576.75;5040994;28;20050;-74
2023/02/03 00:50:23;;;;;;;14.52;2.20;;;;;;;7.76;100.00;102588.03;5037758;28;20100;-74
2023/02/03 00:52:48;;;;;;;19.17;2.88;;;;;;;7.77;100.00;102576.75;5053095;28;20036;-74
2023/02/03 00:55:14;;;;;;;11.40;2.13;;;;;;;7.79;100.00;102550.66;5056177;28;20368;-74
2023/02/03 00:57:39;;;;;;;14.65;2.50;;;;;;;7.79;100.00;102564.56;5057837;28;20040;-74
2023/02/03 01:00:06;;;;;;;14.63;2.45;;;;;;;7.80;100.00;102576.72;5053303;28;20075;-74
2023/02/03 01:02:31;;;;;;;12.15;2.13;;;;;;;7.81;100.00;102556.75;5040977;28;20091;-74
2023/02/03 01:04:56;;;;;;;17.67;3.17;;;;;;;7.82;100.00;102569.78;5055083;28;20332;-74
2023/02/03 01:07:22;;;;;;;13.50;2.30;;;;;;;7.81;100.00;102573.25;5037046;28;20114;-74
2023/02/03 01:09:47;;;;;;;11.80;2.03;;;;;;;7.82;100.00;102564.56;5038710;28;20025;-74
2023/02/03 01:12:12;;;;;;;17.75;2.20;;;;;;;7.83;100.00;102563.69;5057554;28;20349;-74
2023/02/03 01:14:38;;;;;;;10.55;2.40;;;;;;;7.83;100.00;102568.91;5057115;28;20327;-74
2023/02/03 01:17:03;;;;;;;20.60;2.33;;;;;;;7.84;100.00;102567.16;5038234;28;20056;-74
2023/02/03 01:19:29;;;;;;;11.98;2.05;;;;;;;7.86;100.00;102548.03;5048856;28;20053;-74
2023/02/03 01:21:54;;;;;;;11.63;2.33;;;;;;;7.88;99.54;102546.28;5053241;28;20033;-74
2023/02/03 01:24:19;;;;;;;16.10;2.10;;;;;;;7.91;98.99;102547.16;5037045;28;20052;-74
2023/02/03 01:26:45;;;;;;;11.52;1.67;;;;;;;7.92;98.72;102544.53;5038942;28;20075;-74
2023/02/03 01:29:10;;;;;;;14.07;2.20;;;;;;;7.94;98.64;102560.19;5057461;28;20366;-74
2023/02/03 01:31:38;;;;;;;19.05;2.20;;;;;;;7.94;98.58;102545.41;5056732;28;20037;-74
2023/02/03 01:34:05;;;;;;;10.30;2.40;;;;;;;7.95;98.02;102534.13;5037356;28;20065;-74
2023/02/03 01:36:33;;;;;;;11.95;2.33;;;;;;;7.95;97.83;102517.56;5040874;28;20565;-74
2023/02/03 01:38:58;;;;;;;10.60;2.10;;;;;;;7.96;97.70;102511.50;5056954;28;20037;-74
2023/02/03 01:41:27;;;;;;;7.70;2.10;;;;;;;7.97;97.67;102521.06;5053291;28;20367;-74
2023/02/03 01:43:54;;;;;;;8.60;2.10;;;;;;;7.97;97.71;102531.50;5037071;28;20084;-74
2023/02/03 01:46:37;;;;;;;12.95;2.20;;;;;;;7.96;97.69;102546.25;5038227;28;20040;-74
2023/02/03 01:49:18;;;;;;;11.30;1.85;;;;;;;7.97;97.75;102518.47;5035363;28;20048;-74
2023/02/03 01:51:44;;;;;;;11.90;2.13;;;;;;;7.97;97.81;102524.53;5041407;28;20231;-74
2023/02/03 01:54:19;;;;;;;12.75;2.17;;;;;;;7.98;97.16;102534.06;5057104;28;20037;-74
2023/02/03 01:56:54;;;;;;;7.43;2.20;;;;;;;8.00;97.05;102531.47;5048164;28;20029;-74
2023/02/03 01:59:22;;;;;;;16.20;2.50;;;;;;;8.00;97.39;102542.75;5036661;28;20131;-74
2023/02/03 02:01:48;;;;;;;15.50;2.47;;;;;;;8.01;97.17;102528.00;5044327;28;20051;-74
2023/02/03 02:04:14;;;;;;;9.10;2.20;;;;;;;8.00;97.13;102515.81;5056550;28;20123;-74
2023/02/03 02:06:39;;;;;;;10.75;2.20;;;;;;;8.01;97.42;102514.97;5050782;28;20060;-74
2023/02/03 02:09:05;;;;;;;15.73;2.33;;;;;;;8.01;97.08;102507.13;5035529;28;20040;-74
2023/02/03 02:11:30;;;;;;;9.88;1.83;;;;;;;8.01;96.94;102525.41;5040345;28;20052;-74
2023/02/03 02:13:59;;;;;;;8.82;1.80;;;;;;;8.01;97.42;102518.44;5056730;28;20041;-74
2023/02/03 02:16:57;;;;;;;14.48;2.47;;;;;;;8.02;97.33;102506.25;5053088;28;20033;-74
2023/02/03 02:19:28;;;;;;;9.25;1.77;;;;;;;8.01;97.44;102513.22;5052139;28;20223;-74
2023/02/03 02:22:12;;;;;;;13.25;1.98;;;;;;;8.02;97.38;102507.13;5046150;28;20076;-74
2023/02/03 02:24:44;;;;;;;15.10;2.58;;;;;;;8.01;97.49;102508.00;5036185;28;20336;-74
2023/02/03 02:27:28;;;;;;;6.38;2.10;;;;;;;8.04;97.49;102501.88;5048444;28;20217;-74
2023/02/03 02:30:22;;;;;;;14.38;2.22;;;;;;;8.05;97.43;102519.28;5056524;28;20044;-74
2023/02/03 02:32:56;;;;;;;8.77;2.03;;;;;;;8.05;97.36;102519.28;5016394;28;20087;-74
2023/02/03 02:35:21;;;;;;;15.40;2.97;;;;;;;8.05;97.24;102514.06;5036240;28;20344;-74
2023/02/03 02:37:47;;;;;;;10.20;2.00;;;;;;;8.06;97.20;102508.00;5052007;28;20037;-74
2023/02/03 02:40:19;;;;;;;11.75;2.47;;;;;;;8.06;97.21;102511.47;5056618;28;20323;-74
2023/02/03 02:43:15;;;;;;;14.35;1.92;;;;;;;8.07;96.88;102515.78;5039730;28;20041;-74
2023/02/03 02:45:46;;;;;;;7.18;1.70;;;;;;;8.08;96.69;102519.28;5036468;28;20036;-74
2023/02/03 02:48:45;;;;;;;8.45;1.75;;;;;;;8.09;96.96;102507.97;5055975;28;20075;-74
2023/02/03 02:51:12;;;;;;;;;;;;;;;8.10;96.82;102496.66;5053646;28;20043;-74
2023/02/03 02:53:50;;;;;;;12.18;2.03;;;;;;;8.10;96.67;102519.28;5035730;28;19905;-74
2023/02/03 02:56:18;;;;;;;11.85;2.85;;;;;;;8.10;96.56;102512.31;5038711;28;20401;-74
2023/02/03 02:58:47;;;;;;;5.88;2.00;;;;;;;8.12;96.55;102512.31;5056322;28;20013;-74
2023/02/03 03:01:14;;;;;;;9.60;2.20;;;;;;;8.11;96.05;102516.66;5054546;28;20282;-74
2023/02/03 03:03:43;;;;;;;11.25;1.80;;;;;;;8.11;96.33;102511.41;5036559;28;20244;-74
2023/02/03 03:06:16;;;;;;;7.95;1.90;;;;;;;8.11;96.44;102510.56;5036718;28;20096;-74
2023/02/03 03:08:50;;;;;;;7.72;1.83;;;;;;;8.11;96.38;102516.66;5060214;28;20377;-74
2023/02/03 03:11:17;;;;;;;9.98;1.92;;;;;;;8.13;96.07;102498.38;5057688;28;20344;-74
2023/02/03 03:13:54;;;;;;;8.18;1.67;;;;;;;8.13;96.07;102485.31;5039888;28;20049;-74
2023/02/03 03:16:24;;;;;;;11.93;1.98;;;;;;;8.11;95.99;102490.53;5052594;28;20052;-74
2023/02/03 03:18:58;;;;;;;8.88;1.70;;;;;;;8.11;95.97;102490.53;5055527;28;20068;-74
2023/02/03 03:21:31;;;;;;;8.07;1.65;;;;;;;8.12;95.99;102474.03;5038984;28;20049;-74
2023/02/03 03:24:00;;;;;;;10.57;1.83;;;;;;;8.12;96.15;102453.16;5044228;28;20032;-74
2023/02/03 03:26:34;;;;;;;8.38;1.83;;;;;;;8.11;96.02;102477.50;5059181;28;20036;-74
2023/02/03 03:29:13;;;;;;;9.40;1.75;;;;;;;8.11;96.21;102495.75;5054931;28;20025;-74
2023/02/03 03:31:39;;;;;;;7.40;1.60;;;;;;;8.11;96.29;102500.13;5038903;28;20256;-74
2023/02/03 03:34:07;;;;;;;14.43;2.15;;;;;;;8.11;96.44;102497.53;5039970;28;20257;-74
2023/02/03 03:36:43;;;;;;;20.55;2.35;;;;;;;8.10;96.47;102501.88;5057029;28;20116;-74
2023/02/03 03:39:41;;;;;;;9.68;1.90;;;;;;;8.08;96.41;102509.69;5054244;28;20295;-74
2023/02/03 03:42:12;;;;;;;11.18;2.10;;;;;;;8.09;96.52;102518.41;5028623;28;20033;-74
2023/02/03 03:44:51;;;;;;;13.25;2.00;;;;;;;8.09;96.31;102497.53;5038827;28;20033;-74
2023/02/03 03:47:26;;;;;;;6.88;1.55;;;;;;;8.09;96.50;102492.28;5019019;28;20050;-74
2023/02/03 03:49:53;;;;;;;14.65;1.98;;;;;;;8.07;96.43;102494.91;5040762;28;20243;-74
2023/02/03 03:52:24;;;;;;;11.32;2.17;;;;;;;8.06;96.33;102485.38;5058250;28;20024;-73
2023/02/03 03:54:52;;;;;;;14.20;2.25;;;;;;;8.08;96.42;102498.41;5049417;28;20056;-74
2023/02/03 03:57:24;;;;;;;10.32;1.67;;;;;;;8.07;96.44;102502.75;5038892;28;20037;-73
2023/02/03 03:59:50;;;;;;;13.60;1.83;;;;;;;8.08;96.79;102499.25;5047769;28;20240;-73
2023/02/03 04:02:19;;;;;;;11.57;1.95;;;;;;;8.07;96.41;102504.50;5056035;28;20231;-73
2023/02/03 04:04:45;;;;;;;;;;;;;;;8.07;96.77;102507.97;5039707;28;20025;-73
2023/02/03 04:07:12;;;;;;;7.90;1.75;;;;;;;8.08;96.77;102503.63;5039455;28;19912;-73
2023/02/03 04:09:39;;;;;;;11.18;1.98;;;;;;;8.08;96.75;102496.66;5058812;28;20073;-73
2023/02/03 04:12:09;;;;;;;9.25;2.20;;;;;;;8.07;96.69;102497.53;5058724;28;20031;-73
2023/02/03 04:14:38;;;;;;;15.15;1.80;;;;;;;8.06;96.91;102505.38;5038291;28;20322;-73
2023/02/03 04:17:04;;;;;;;15.52;2.15;;;;;;;8.06;96.82;102529.72;5039065;28;20097;-73
2023/02/03 04:19:29;;;;;;;8.25;1.67;;;;;;;8.08;96.87;102529.72;5056197;28;20043;-73
2023/02/03 04:21:55;;;;;;;11.10;1.67;;;;;;;8.07;96.55;102531.44;5058308;28;20260;-73
2023/02/03 04:24:20;;;;;;;11.48;2.50;;;;;;;8.06;96.64;102521.91;5053043;28;20041;-73
2023/02/03 04:26:46;;;;;;;16.88;2.30;;;;;;;8.08;96.61;102524.50;5055987;28;20051;-73
2023/02/03 04:29:11;;;;;;;14.30;1.63;;;;;;;8.06;96.58;102514.06;5058221;28;20033;-73
2023/02/03 04:31:37;;;;;;;10.30;1.80;;;;;;;8.06;96.60;102521.03;5038187;28;20219;-73
2023/02/03 04:34:03;;;;;;;10.38;2.42;;;;;;;8.05;96.86;102514.94;5051241;28;20324;-70
2023/02/03 04:36:28;;;;;;;9.75;2.38;;;;;;;8.05;96.67;102512.31;5055705;28;20049;-70
2023/02/03 04:38:54;;;;;;;8.88;1.70;;;;;;;8.05;96.79;102509.69;5042884;28;20045;-70
2023/02/03 04:41:19;;;;;;;11.45;2.22;;;;;;;8.05;96.76;102501.88;5037981;28;20359;-70
2023/02/03 04:43:44;;;;;;;6.97;2.03;;;;;;;8.05;96.24;102498.41;5051908;28;20032;-70
2023/02/03 04:46:10;;;;;;;12.73;1.95;;;;;;;8.05;96.39;102509.69;5058072;28;20029;-70
2023/02/03 04:48:36;;;;;;;15.35;2.65;;;;;;;8.04;96.40;102504.50;5045551;28;20353;-70
2023/02/03 04:51:03;;;;;;;11.13;1.48;;;;;;;8.04;96.62;102512.31;5050427;28;20237;-70
2023/02/03 04:53:30;;;;;;;11.88;2.10;;;;;;;8.03;96.51;102518.44;5047174;28;20113;-70
2023/02/03 04:55:55;;;;;;;11.70;1.83;;;;;;;8.03;96.51;102516.69;5038203;28;20035;-70
2023/02/03 04:58:20;;;;;;;8.57;1.70;;;;;;;8.01;96.47;102518.44;5045623;28;20056;-70
2023/02/03 05:00:46;;;;;;;8.02;1.63;;;;;;;8.01;96.80;102525.41;5042312;28;20043;-70
2023/02/03 05:03:11;;;;;;;12.52;2.08;;;;;;;8.00;96.88;102531.47;5038055;28;20221;-70
2023/02/03 05:05:36;;;;;;;8.80;1.58;;;;;;;8.00;96.95;102534.06;5038490;28;20261;-70
2023/02/03 05:08:02;;;;;;;12.82;1.90;;;;;;;7.98;96.99;102526.25;5037591;28;20356;-70
2023/02/03 05:10:27;;;;;;;7.80;2.03;;;;;;;7.97;97.34;102528.91;5042555;28;20064;-70
2023/02/03 05:12:53;;;;;;;12.20;2.38;;;;;;;7.96;97.50;102517.56;5057868;28;20048;-70
2023/02/03 05:15:18;;;;;;;16.00;2.35;;;;;;;7.94;97.60;102516.72;5054227;28;20048;-72
2023/02/03 05:17:44;;;;;;;16.90;2.83;;;;;;;7.93;97.56;102524.53;5037812;28;20033;-72
2023/02/03 05:20:10;;;;;;;9.82;2.05;;;;;;;7.92;97.61;102515.84;5038751;28;20155;-72
2023/02/03 05:22:35;;;;;;;14.05;2.40;;;;;;;7.92;97.67;102522.81;5015600;28;20380;-72
2023/02/03 05:25:01;;;;;;;11.70;2.15;;;;;;;7.90;98.18;102528.03;5017730;28;20087;-72
2023/02/03 05:27:27;;;;;;;10.55;1.90;;;;;;;7.90;98.50;102525.41;5056130;28;20052;-72
2023/02/03 05:29:53;;;;;;;11.38;1.95;;;;;;;7.90;98.07;102516.72;5057361;28;20045;-72
2023/02/03 05:32:18;;;;;;;13.88;2.65;;;;;;;7.90;98.16;102528.03;5038744;28;20041;-72
2023/02/03 05:34:43;;;;;;;13.98;2.17;;;;;;;7.88;98.07;102525.41;5037327;28;20041;-72
2023/02/03 05:37:09;;;;;;;11.45;2.17;;;;;;;7.90;98.07;102530.63;5052780;28;20053;-72
2023/02/03 05:39:34;;;;;;;11.88;1.88;;;;;;;7.92;97.72;102520.22;5056813;28;20025;-72
2023/02/03 05:41:59;;;;;;;10.50;2.28;;;;;;;7.92;97.48;102534.09;5040066;28;20049;-72
2023/02/03 05:44:27;;;;;;;17.00;1.95;;;;;;;7.94;97.38;102527.13;5036704;28;20033;-72
2023/02/03 05:46:55;;;;;;;15.18;1.80;;;;;;;7.94;97.29;102519.31;5053021;28;20304;-72
2023/02/03 05:49:22;;;;;;;9.70;1.75;;;;;;;7.95;97.16;102520.19;5056634;28;20055;-72
2023/02/03 05:51:48;;;;;;;7.13;1.42;;;;;;;7.96;97.28;102514.09;5041391;28;20037;-72
2023/02/03 05:54:13;;;;;;;9.85;1.42;;;;;;;7.96;97.14;102503.66;5037140;28;20041;-72
2023/02/03 05:56:39;;;;;;;8.65;1.52;;;;;;;7.97;97.39;102515.84;5049787;28;20064;-72
2023/02/03 05:59:05;;;;;;;12.70;2.50;;;;;;;7.96;97.29;102517.56;5057283;28;20066;-70
2023/02/03 06:01:32;;;;;;;10.85;1.58;;;;;;;7.96;97.63;102528.00;5034768;28;20053;-72
2023/02/03 06:03:57;;;;;;;8.63;1.60;;;;;;;7.95;97.36;102523.69;5036912;28;20459;-72
2023/02/03 06:06:23;;;;;;;9.75;2.08;;;;;;;7.96;97.76;102543.66;5046154;28;20493;-72
2023/02/03 06:08:51;;;;;;;13.35;2.30;;;;;;;7.96;97.47;102537.56;5056935;28;20321;-72
2023/02/03 06:11:16;;;;;;;9.60;1.90;;;;;;;7.96;97.59;102533.22;5047322;28;20060;-72
2023/02/03 06:13:42;;;;;;;10.95;1.92;;;;;;;7.97;97.53;102527.16;5038083;28;20029;-72
2023/02/03 06:16:08;;;;;;;9.15;2.00;;;;;;;7.97;97.84;102521.06;5043163;28;20205;-72
2023/02/03 06:18:33;;;;;;;14.18;2.20;;;;;;;7.98;97.84;102517.56;5055988;28;20196;-72
2023/02/03 06:20:58;;;;;;;10.95;1.77;;;;;;;7.98;97.84;102531.47;5051721;28;20352;-72
2023/02/03 06:23:24;;;;;;;11.80;1.65;;;;;;;7.96;97.77;102514.97;5035992;28;20406;-72
2023/02/03 06:25:50;;;;;;;12.00;1.92;;;;;;;7.97;97.93;102513.25;5036288;28;20056;-72
2023/02/03 06:28:16;;;;;;;7.78;1.75;;;;;;;7.97;97.99;102511.50;5036073;28;20037;-72
2023/02/03 06:30:41;;;;;;;15.95;2.40;;;;;;;7.97;97.70;102516.72;5038367;28;20100;-72
2023/02/03 06:33:07;;;;;;;12.50;1.88;;;;;;;7.97;97.65;102510.63;5053364;28;20214;-72
2023/02/03 06:35:32;;;;;;;10.27;2.22;;;;;;;7.97;98.13;102518.47;5049006;28;20040;-72
2023/02/03 06:37:58;;;;;;;8.38;1.75;;;;;;;7.96;97.90;102525.38;5040348;28;20336;-72
2023/02/03 06:40:23;;;;;;;15.13;2.10;;;;;;;7.95;98.24;102544.53;5055856;28;20100;-72
2023/02/03 06:42:50;;;;;;;12.00;1.75;;;;;;;7.94;98.27;102558.44;5040505;28;20040;-72
2023/02/03 06:45:15;;;;;;;11.10;2.15;;;;;;;7.94;98.23;102541.94;5040020;28;20075;-72
2023/02/03 06:47:42;;;;;;;11.70;1.98;;;;;;;7.94;98.45;102552.38;5057180;28;20072;-72
2023/02/03 06:50:09;;;;;;;18.83;2.95;;;;;;;7.95;98.41;102559.31;5060838;28;20363;-72
2023/02/03 06:52:35;;;;;;;8.57;1.73;;;;;;;7.95;98.75;102546.25;5049253;28;20082;-72
2023/02/03 06:55:01;;;;;;;25.67;2.80;;;;;;;7.95;98.69;102564.53;5060515;28;20029;-72
2023/02/03 06:57:26;;;;;;;9.15;1.83;;;;;;;7.96;98.97;102568.88;5043170;28;20044;-72
2023/02/03 06:59:52;;;;;;;14.38;2.47;;;;;;;7.97;98.79;102573.25;5040331;28;20214;-72
2023/02/03 07:02:17;;;;;;;11.52;1.77;;;;;;;7.98;98.83;102572.34;5052060;28;20045;-72
2023/02/03 07:04:44;;;;;;;15.00;2.25;;;;;;;7.99;98.96;102588.00;5060262;28;20142;-72
2023/02/03 07:07:11;;;;;;;11.23;2.50;;;;;;;8.00;99.31;102581.91;5048502;28;20075;-72
2023/02/03 07:09:37;;;;;;;7.40;1.90;;;;;;;8.02;99.03;102576.69;5038988;28;20040;-72
2023/02/03 07:12:02;;;;;;;7.30;1.58;;;;;;;8.04;98.98;102569.72;5047612;28;20231;-72
2023/02/03 07:14:29;;;;;;;18.73;2.55;;;;;;;8.06;98.92;102586.28;5058232;28;20036;-72
2023/02/03 07:16:55;;;;;;;13.50;1.88;;;;;;;8.07;98.90;102591.47;5055934;28;20048;-72
2023/02/03 07:19:20;;;;;;;10.20;2.65;;;;;;;8.07;98.83;102581.03;5058126;28;20039;-72
2023/02/03 07:21:46;;;;;;;10.45;2.03;;;;;;;8.10;98.80;102587.13;5044534;28;20037;-72
2023/02/03 07:24:11;;;;;;;11.52;1.92;;;;;;;8.10;98.88;102595.81;5038658;28;20044;-72
2023/02/03 07:26:37;;;;;;;14.00;2.80;;;;;;;8.10;98.69;102590.59;5053383;28;20063;-72
2023/02/03 07:29:03;;;;;;;11.63;1.90;;;;;;;8.12;98.85;102598.44;5059540;28;20045;-72
2023/02/03 07:31:28;;;;;;;11.93;2.55;;;;;;;8.13;98.58;102610.59;5044637;28;20250;-72
2023/02/03 07:33:55;;;;;;;12.23;2.50;;;;;;;8.14;98.32;102605.38;5039524;28;20321;-72
2023/02/03 07:36:20;;;;;;;8.70;1.58;;;;;;;8.17;97.80;102594.94;5038662;28;20056;-72
2023/02/03 07:38:46;;;;;;;9.93;2.25;;;;;;;8.20;97.67;102602.72;5036717;28;20053;-72
2023/02/03 07:41:11;;;;;;;9.85;2.45;;;;;;;8.22;97.82;102590.56;5042107;28;20037;-72
2023/02/03 07:43:37;;;;;;;10.98;1.90;;;;;;;8.23;97.59;102613.19;5050928;28;20298;-72
2023/02/03 07:46:02;;;;;;;9.40;2.03;;;;;;;8.25;97.71;102594.91;5059320;28;20036;-73
2023/02/03 07:48:28;;;;;;;8.48;1.65;;;;;;;8.26;97.70;102588.81;5041161;28;20121;-72
2023/02/03 07:50:53;;;;;;;10.38;1.98;;;;;;;8.26;97.44;102587.06;5038456;28;20340;-72
2023/02/03 07:53:18;;;;;;;10.13;1.60;;;;;;;8.29;97.75;102622.72;5036924;28;20395;-72
2023/02/03 07:55:44;;;;;;;16.40;2.20;;;;;;;8.29;97.29;102601.00;5050428;28;20072;-72
2023/02/03 07:58:09;;;;;;;13.10;1.77;;;;;;;8.30;97.47;102614.03;5058213;28;20040;-72
2023/02/03 08:00:35;;;;;;;11.35;1.70;;;;;;;8.32;97.24;102608.81;5042001;28;20044;-72
2023/02/03 08:03:01;;;;;;;11.93;1.80;;;;;;;8.32;97.26;102601.84;5043623;28;20052;-72
2023/02/03 08:05:27;;;;;;;15.48;2.38;;;;;;;8.32;97.52;102601.84;5041197;28;20104;-72
2023/02/03 08:07:52;;;;;;;9.18;1.77;;;;;;;8.33;97.17;102620.97;5057241;28;20356;-72
2023/02/03 08:10:18;;;;;;;9.27;2.15;;;;;;;8.32;97.49;102627.09;5052044;28;20045;-72
2023/02/03 08:12:45;;;;;;;13.70;2.35;;;;;;;8.32;97.32;102622.72;5041690;28;20037;-72
2023/02/03 08:15:12;;;;;;;11.20;1.80;;;;;;;8.33;97.47;102620.97;5038696;28;20324;-72
2023/02/03 08:17:40;;;;;;;10.02;1.70;;;;;;;8.34;97.65;102620.13;5033504;28;20067;-72
2023/02/03 08:20:06;;;;;;;12.32;2.08;;;;;;;8.35;97.34;102619.22;5028219;28;20348;-72
2023/02/03 08:22:32;;;;;;;6.50;1.80;;;;;;;8.35;97.61;102627.97;5035927;28;20033;-72
2023/02/03 08:24:57;;;;;;;4.70;1.70;;;;;;;8.35;97.70;102650.56;5035688;28;20202;-72
2023/02/03 08:27:23;;;;;;;17.88;2.05;;;;;;;8.37;97.42;102647.09;5035339;28;20144;-72
2023/02/03 08:29:49;;;;;;;9.75;1.70;;;;;;;8.38;97.22;102640.97;5038983;28;20221;-72
2023/02/03 08:32:18;;;;;;;11.85;2.22;;;;;;;8.39;97.16;102631.44;5035952;28;20248;-72
2023/02/03 08:34:43;;;;;;;;;;;;;;;8.39;97.13;102647.94;5034926;28;20316;-72
2023/02/03 08:37:11;;;;;;;15.00;1.92;;;;;;;8.41;96.88;102646.19;5037672;28;19923;-72
2023/02/03 08:39:37;;;;;;;9.88;1.85;;;;;;;8.42;96.96;102628.81;5036121;28;20356;-72
2023/02/03 08:42:03;;;;;;;8.23;1.83;;;;;;;8.43;96.58;102651.47;5036206;28;20338;-72
2023/02/03 08:44:33;;;;;;;7.65;1.70;;;;;;;8.43;96.63;102641.88;5037256;28;20056;-72
2023/02/03 08:46:59;;;;;;;5.93;1.77;;;;;;;8.46;96.40;102643.63;5040277;28;20026;-72
2023/02/03 08:49:26;;;;;;;12.85;1.95;;;;;;;8.45;96.39;102644.47;5037712;28;20073;-72
2023/02/03 08:51:52;;;;;;;7.68;1.60;;;;;;;8.47;96.58;102641.88;5039473;28;20284;-72
2023/02/03 08:54:18;;;;;;;10.75;1.67;;;;;;;8.47;96.37;102655.78;5032988;28;20328;-72
2023/02/03 08:56:45;;;;;;;10.45;2.00;;;;;;;8.47;96.52;102652.31;5038070;28;20239;-72
2023/02/03 08:59:11;;;;;;;5.53;1.73;;;;;;;8.48;96.29;102669.69;5039295;28;20332;-72
2023/02/03 09:01:39;;;;;;;9.90;1.80;;;;;;;8.47;96.78;102653.19;5032701;28;20394;-72
2023/02/03 09:04:07;;;;;;;17.27;2.58;;;;;;;8.48;96.69;102659.25;5036770;28;20029;-73
2023/02/03 09:06:33;;;;;;;9.18;1.95;;;;;;;8.48;96.81;102664.47;5034980;28;20057;-72
2023/02/03 09:08:58;;;;;;;9.40;1.77;;;;;;;8.48;97.04;102664.47;5040888;28;20067;-72
2023/02/03 09:11:24;;;;;;;11.27;1.95;;;;;;;8.47;96.44;102660.16;5034879;28;20310;-72
2023/02/03 09:13:49;;;;;;;6.93;1.83;;;;;;;8.47;96.64;102679.28;5036996;28;20195;-72
2023/02/03 09:16:17;;;;;;;11.45;2.58;;;;;;;8.49;96.36;102679.28;5035603;28;20037;-72
2023/02/03 09:18:43;;;;;;;6.43;1.35;;;;;;;8.49;96.57;102676.69;5036563;28;20045;-72
2023/02/03 09:21:10;;;;;;;9.85;1.60;;;;;;;8.48;96.51;102691.47;5036313;28;20021;-72
2023/02/03 09:23:37;;;;;;;14.18;2.20;;;;;;;8.50;96.75;102696.72;5035834;28;20167;-72
2023/02/03 09:26:06;;;;;;;10.60;2.05;;;;;;;8.50;96.74;102701.94;5035634;28;20091;-72
2023/02/03 09:28:33;;;;;;;15.05;1.98;;;;;;;8.49;96.69;102693.22;5035322;28;20317;-72
2023/02/03 09:31:03;;;;;;;10.05;1.95;;;;;;;8.49;96.96;102693.22;5035113;28;20068;-72
2023/02/03 09:33:29;;;;;;;12.10;2.95;;;;;;;8.51;96.92;102706.25;5034684;28;20088;-72
2023/02/03 09:35:56;;;;;;;13.57;2.50;;;;;;;8.51;96.93;102707.13;5036026;28;20044;-72
2023/02/03 09:38:22;;;;;;;12.55;2.30;;;;;;;8.52;96.93;102701.03;5034304;28;20100;-72
2023/02/03 09:41:01;;;;;;;11.18;2.17;;;;;;;8.55;96.75;102714.09;5036638;28;20033;-72
2023/02/03 09:43:38;;;;;;;12.32;1.85;;;;;;;8.56;96.80;102714.97;5033212;28;20299;-72
2023/02/03 09:46:32;;;;;;;10.18;1.88;;;;;;;8.57;96.79;102719.31;5035645;28;20038;-72
2023/02/03 09:49:05;;;;;;;9.40;1.77;;;;;;;8.57;96.63;102714.09;5036677;28;20029;-72
2023/02/03 09:51:42;;;;;;;12.52;1.58;;;;;;;8.59;96.78;102710.59;5035982;28;20204;-73
2023/02/03 09:54:37;;;;;;;18.15;2.85;;;;;;;8.61;96.50;102714.06;5033511;28;20314;-72
2023/02/03 09:57:11;;;;;;;13.57;1.85;;;;;;;8.63;96.93;102706.25;4986964;28;20048;-72
2023/02/03 09:59:37;;;;;;;14.57;1.83;;;;;;;8.64;96.86;102729.75;5033617;28;20281;-72
2023/02/03 10:02:08;;;;;;;14.93;2.40;;;;;;;8.65;96.71;102736.69;5038444;28;20040;-72
2023/02/03 10:04:41;;;;;;;12.80;1.85;;;;;;;8.66;96.95;102732.38;5034549;28;20096;-72
2023/02/03 10:07:24;;;;;;;13.32;2.15;;;;;;;8.68;96.59;102738.44;5034308;28;20029;-72
2023/02/03 10:10:12;;;;;;;10.90;2.53;;;;;;;8.69;96.46;102734.94;5034460;28;20041;-72
2023/02/03 10:12:52;;;;;;;12.38;2.13;;;;;;;8.73;96.44;102726.25;5017621;28;20049;-72
2023/02/03 10:15:45;;;;;;;13.00;1.77;;;;;;;8.75;96.28;102734.94;5027566;28;20372;-73
2023/02/03 10:18:23;;;;;;;12.65;2.28;;;;;;;8.79;96.04;102741.91;5034100;28;20033;-72
2023/02/03 10:21:18;;;;;;;6.55;1.90;;;;;;;8.80;95.92;102751.50;5034639;28;20041;-72
2023/02/03 10:23:47;;;;;;;8.35;1.67;;;;;;;8.84;95.97;102747.09;5036171;28;20056;-72
2023/02/03 10:26:20;;;;;;;15.35;3.58;;;;;;;8.85;95.88;102772.34;5035552;28;20242;-72
2023/02/03 10:29:16;;;;;;;9.70;2.45;;;;;;;8.88;95.91;102748.84;5034422;28;20055;-72
2023/02/03 10:31:42;;;;;;;7.85;1.55;;;;;;;8.90;95.89;102751.47;5034438;28;20318;-72
2023/02/03 10:34:10;;;;;;;6.65;1.60;;;;;;;8.92;95.51;102745.34;5034422;28;20037;-72
2023/02/03 10:36:57;;;;;;;13.23;1.77;;;;;;;8.95;95.76;102754.91;5031247;28;20092;-72
2023/02/03 10:39:55;;;;;;;7.25;1.83;;;;;;;8.97;94.76;102751.44;5033431;28;20033;-72
2023/02/03 10:42:21;;;;;;;11.27;2.03;;;;;;;9.00;94.93;102771.44;5027701;28;20360;-72
2023/02/03 10:44:56;;;;;;;9.05;1.77;;;;;;;9.04;94.45;102757.50;5032196;28;20413;-72
2023/02/03 10:47:41;;;;;;;7.10;1.60;;;;;;;9.05;94.18;102772.28;5027273;28;20352;-72
2023/02/03 10:50:15;;;;;;;10.82;2.10;;;;;;;9.08;94.36;102781.88;5031801;28;20033;-72
2023/02/03 10:52:40;;;;;;;5.25;1.20;;;;;;;9.09;94.46;102783.63;5032511;28;20103;-73
2023/02/03 10:55:28;;;;;;;14.32;2.17;;;;;;;9.09;94.51;102768.78;5032070;28;20434;-72
2023/02/03 10:57:55;;;;;;;9.48;2.35;;;;;;;9.10;93.98;102791.47;5033437;28;20033;-72
2023/02/03 11:00:29;;;;;;;6.65;1.83;;;;;;;9.12;94.21;102778.38;5033076;28;20067;-72
2023/02/03 11:03:14;;;;;;;5.80;1.75;;;;;;;9.13;94.08;102788.84;5033263;28;20044;-72
2023/02/03 11:05:39;;;;;;;8.15;1.77;;;;;;;9.13;94.40;102781.00;5013732;28;21108;-73
2023/02/03 11:08:14;;;;;;;11.45;2.00;;;;;;;9.14;94.68;102795.78;5014422;28;20109;-73
2023/02/03 11:10:39;;;;;;;8.52;1.52;;;;;;;9.14;94.06;102792.31;5031573;28;20052;-73
2023/02/03 11:13:25;;;;;;;10.48;2.13;;;;;;;9.14;94.05;102782.72;5033194;28;20348;-72
2023/02/03 11:15:58;;;;;;;7.10;1.20;;;;;;;9.16;94.24;102780.09;5032671;28;20315;-72
2023/02/03 11:18:39;;;;;;;10.60;1.77;;;;;;;9.16;94.36;102788.81;5031498;28;20041;-72
2023/02/03 11:21:18;;;;;;;12.10;1.80;;;;;;;9.17;94.08;102769.66;5032247;28;20060;-72
2023/02/03 11:24:18;;;;;;;12.45;1.98;;;;;;;9.20;94.06;102784.44;5034160;28;20109;-72
2023/02/03 11:26:52;;;;;;;6.22;1.42;;;;;;;9.20;94.28;102787.94;5033693;28;20273;-72
2023/02/03 11:29:27;;;;;;;8.18;2.05;;;;;;;9.20;94.18;102794.91;5034991;28;20072;-72
2023/02/03 11:31:54;;;;;;;5.55;1.58;;;;;;;9.19;94.51;102798.41;5031306;28;20041;-72
2023/02/03 11:34:29;;;;;;;9.90;1.83;;;;;;;9.20;94.64;102797.50;5035611;28;20037;-72
2023/02/03 11:36:55;;;;;;;11.15;1.92;;;;;;;9.20;94.59;102784.44;5038340;28;20059;-72